createdAt,value
2023-03-29T00:02:38.162Z,81.63
2023-03-29T00:05:41.418Z,80.98
2023-03-29T00:08:46.190Z,80.46
2023-03-29T00:11:48.455Z,80.37
2023-03-29T00:14:50.558Z,80.98
2023-03-29T00:17:53.347Z,80.19
2023-03-29T00:20:56.948Z,80.93
2023-03-29T00:23:59.776Z,80.60
2023-03-29T00:27:01.993Z,80.72
2023-03-29T00:30:06.535Z,80.71
2023-03-29T00:33:08.852Z,81.52
2023-03-29T00:36:12.709Z,79.64
2023-03-29T00:39:15.036Z,78.95
2023-03-29T00:42:17.737Z,78.41
2023-03-29T00:45:25.404Z,78.87
2023-03-29T00:56:14.359Z,80.57
2023-03-29T00:59:22.428Z,81.25
2023-03-29T01:02:28.977Z,81.93
2023-03-29T01:05:38.105Z,82.41
2023-03-29T01:08:54.818Z,83.10
2023-03-29T01:12:08.753Z,83.10
2023-03-29T01:15:19.479Z,83.21
2023-03-29T01:18:22.243Z,84.07
2023-03-29T01:21:33.605Z,83.46
2023-03-29T01:24:53.972Z,83.54
2023-03-29T01:28:04.260Z,84.93
2023-03-29T01:31:17.303Z,84.77
2023-03-29T01:34:37.581Z,85.17
2023-03-29T01:37:49.612Z,85.07
2023-03-29T01:40:52.204Z,85.06
2023-03-29T01:44:03.499Z,84.41
2023-03-29T01:47:15.119Z,84.46
2023-03-29T01:50:35.572Z,84.61
2023-03-29T01:54:05.108Z,84.05
2023-03-29T01:57:10.543Z,83.82
2023-03-29T02:00:16.807Z,84.22
2023-03-29T02:03:23.184Z,84.24
2023-03-29T02:06:27.882Z,84.12
2023-03-29T02:09:30.931Z,84.16
2023-03-29T02:12:34.191Z,84.39
2023-03-29T02:15:36.521Z,85.05
2023-03-29T02:18:44.223Z,85.35
2023-03-29T02:22:08.489Z,86.34
2023-03-29T02:25:10.847Z,87.11
2023-03-29T02:28:13.679Z,87.00
2023-03-29T02:31:35.250Z,87.36
2023-03-29T02:34:53.733Z,87.66
2023-03-29T02:37:57.761Z,87.71
2023-03-29T02:41:01.631Z,87.61
2023-03-29T02:44:07.890Z,87.81
2023-03-29T02:47:19.512Z,87.95
2023-03-29T02:50:23.169Z,87.89
2023-03-29T02:53:33.967Z,87.71
2023-03-29T02:56:43.868Z,87.54
2023-03-29T02:59:46.397Z,87.43
2023-03-29T03:02:49.079Z,87.32
2023-03-29T03:05:52.629Z,87.04
2023-03-29T03:08:55.153Z,87.18
2023-03-29T03:11:57.331Z,87.09
2023-03-29T03:14:59.785Z,87.09
2023-03-29T03:18:03.880Z,86.59
2023-03-29T03:21:06.401Z,86.48
2023-03-29T03:24:08.552Z,85.98
2023-03-29T03:27:10.837Z,86.23
2023-03-29T03:30:13.639Z,85.78
2023-03-29T03:33:16.024Z,85.74
2023-03-29T03:36:18.479Z,86.24
2023-03-29T03:39:20.978Z,86.26
2023-03-29T03:42:23.866Z,86.28
2023-03-29T03:45:26.204Z,86.03
2023-03-29T03:48:28.638Z,86.36
2023-03-29T03:51:39.808Z,86.73
2023-03-29T03:54:43.370Z,86.55
2023-03-29T03:57:45.577Z,86.83
2023-03-29T04:00:49.341Z,86.52
2023-03-29T04:03:51.613Z,86.43
2023-03-29T04:06:54.001Z,86.45
2023-03-29T04:17:12.417Z,87.11
2023-03-29T04:20:15.125Z,87.48
2023-03-29T04:23:17.924Z,87.76
2023-03-29T04:26:20.118Z,87.73
2023-03-29T04:29:22.450Z,87.91
2023-03-29T04:32:25.012Z,88.35
2023-03-29T04:35:27.386Z,88.31
2023-03-29T04:43:23.865Z,88.06
2023-03-29T04:50:04.596Z,88.03
2023-03-29T04:53:08.166Z,87.44
2023-03-29T04:56:10.380Z,87.10
2023-03-29T04:59:12.814Z,86.55
2023-03-29T05:02:15.038Z,86.02
2023-03-29T05:05:17.473Z,85.80
2023-03-29T05:08:20.067Z,85.50
2023-03-29T05:11:24.660Z,85.45
2023-03-29T05:14:29.175Z,85.04
2023-03-29T05:17:32.168Z,84.96
2023-03-29T05:20:34.475Z,85.71
2023-03-29T05:23:36.692Z,85.94
2023-03-29T05:27:06.923Z,85.82
2023-03-29T05:30:09.801Z,85.74
2023-03-29T05:33:12.473Z,85.77
2023-03-29T05:36:16.743Z,85.74
2023-03-29T05:39:44.016Z,85.47
2023-03-29T05:42:46.248Z,85.48
2023-03-29T05:45:48.848Z,84.77
2023-03-29T05:48:51.273Z,84.24
2023-03-29T05:51:57.210Z,83.74
2023-03-29T05:54:59.406Z,82.90
2023-03-29T05:58:02.559Z,81.73
2023-03-29T06:01:05.413Z,81.69
2023-03-29T06:04:07.937Z,80.83
2023-03-29T06:07:15.266Z,81.02
2023-03-29T06:10:18.634Z,80.72
2023-03-29T06:13:22.566Z,80.08
2023-03-29T06:16:26.082Z,79.66
2023-03-29T06:19:28.372Z,79.01
2023-03-29T06:22:46.883Z,77.45
2023-03-29T06:29:26.772Z,76.12
2023-03-29T06:32:29.113Z,75.08
2023-03-29T06:35:31.296Z,74.87
2023-03-29T06:38:34.180Z,73.48
2023-03-29T06:41:36.386Z,75.00
2023-03-29T06:44:38.621Z,74.23
2023-03-29T06:47:41.306Z,71.94
2023-03-29T06:50:43.605Z,69.65
2023-03-29T06:53:46.440Z,66.52
2023-03-29T06:56:48.952Z,67.42
2023-03-29T06:59:51.163Z,68.30
2023-03-29T07:02:54.536Z,68.04
2023-03-29T07:06:09.876Z,67.06
2023-03-29T07:09:13.071Z,67.28
2023-03-29T07:12:15.487Z,68.23
2023-03-29T07:15:18.142Z,67.26
2023-03-29T07:18:20.470Z,65.62
2023-03-29T07:21:23.071Z,65.02
2023-03-29T07:24:25.359Z,62.76
2023-03-29T07:27:27.688Z,62.10
2023-03-29T07:30:32.156Z,61.24
2023-03-29T07:33:35.388Z,61.03
2023-03-29T07:36:40.840Z,57.85
2023-03-29T07:39:43.289Z,57.82
2023-03-29T07:42:46.970Z,55.88
2023-03-29T07:45:49.342Z,55.66
2023-03-29T07:48:52.376Z,54.69
2023-03-29T07:51:55.198Z,55.94
2023-03-29T07:54:57.674Z,55.09
2023-03-29T07:57:59.994Z,54.29
2023-03-29T08:01:02.551Z,53.15
2023-03-29T08:04:05.109Z,53.05
2023-03-29T08:07:07.600Z,52.76
2023-03-29T08:10:12.371Z,51.71
2023-03-29T08:13:14.638Z,52.82
2023-03-29T08:16:16.885Z,52.15
2023-03-29T08:19:19.185Z,51.57
2023-03-29T08:22:22.183Z,52.29
2023-03-29T08:25:24.467Z,53.02
2023-03-29T08:28:26.831Z,53.36
2023-03-29T08:31:29.149Z,51.96
2023-03-29T08:34:32.022Z,52.26
2023-03-29T08:37:34.210Z,51.52
2023-03-29T08:40:37.397Z,50.66
2023-03-29T08:43:52.084Z,50.36
2023-03-29T08:46:54.253Z,50.89
2023-03-29T08:49:58.183Z,49.19
2023-03-29T08:53:06.092Z,48.44
2023-03-29T08:56:15.603Z,45.63
2023-03-29T08:59:23.451Z,45.99
2023-03-29T09:02:28.714Z,43.66
2023-03-29T09:05:35.887Z,42.23
2023-03-29T09:08:49.870Z,40.52
2023-03-29T09:12:01.969Z,40.71
2023-03-29T09:15:08.813Z,39.88
2023-03-29T09:18:20.222Z,40.13
2023-03-29T09:21:34.830Z,39.87
2023-03-29T09:24:52.902Z,39.14
2023-03-29T09:28:36.138Z,38.77
2023-03-29T09:31:44.623Z,38.67
2023-03-29T09:34:59.922Z,38.66
2023-03-29T09:38:04.185Z,37.52
2023-03-29T09:41:32.418Z,37.15
2023-03-29T09:44:48.181Z,38.01
2023-03-29T09:48:13.619Z,36.57
2023-03-29T09:51:17.964Z,35.94
2023-03-29T09:54:20.294Z,34.66
2023-03-29T09:57:22.525Z,34.48
2023-03-29T10:00:25.199Z,35.63
2023-03-29T10:03:29.930Z,35.25
2023-03-29T10:06:32.835Z,35.16
2023-03-29T10:09:35.792Z,34.35
2023-03-29T10:12:38.079Z,34.61
2023-03-29T10:15:40.290Z,34.31
2023-03-29T10:18:43.300Z,34.43
2023-03-29T10:21:49.145Z,34.45
2023-03-29T10:24:53.422Z,34.49
2023-03-29T10:28:04.217Z,35.73
2023-03-29T10:31:08.398Z,34.45
2023-03-29T10:34:15.372Z,33.91
2023-03-29T10:37:19.705Z,35.05
2023-03-29T10:40:27.985Z,34.93
2023-03-29T10:43:37.726Z,34.93
2023-03-29T10:46:44.330Z,35.19
2023-03-29T10:49:53.220Z,35.47
2023-03-29T10:52:57.329Z,35.50
2023-03-29T10:56:21.197Z,34.73
2023-03-29T10:59:29.558Z,35.27
2023-03-29T11:02:45.246Z,35.45
2023-03-29T11:06:11.430Z,34.84
2023-03-29T11:09:14.352Z,34.65
2023-03-29T11:12:44.583Z,35.00
2023-03-29T11:16:01.934Z,35.69
2023-03-29T11:19:58.579Z,36.10
2023-03-29T11:23:22.391Z,34.53
2023-03-29T11:26:47.443Z,34.20
2023-03-29T11:29:58.771Z,33.45
2023-03-29T11:33:20.830Z,32.58
2023-03-29T11:36:39.129Z,31.62
2023-03-29T11:40:00.510Z,31.47
2023-03-29T11:43:06.061Z,31.10
2023-03-29T11:46:15.092Z,32.10
2023-03-29T11:49:37.155Z,31.74
2023-03-29T11:52:51.227Z,31.15
2023-03-29T11:55:56.042Z,31.99
2023-03-29T11:59:05.530Z,32.50
2023-03-29T12:02:20.251Z,32.62
2023-03-29T12:05:28.312Z,31.88
2023-03-29T12:08:46.005Z,32.57
2023-03-29T12:12:18.025Z,32.72
2023-03-29T12:15:25.030Z,32.86
2023-03-29T12:18:48.743Z,33.66
2023-03-29T12:21:54.389Z,31.81
2023-03-29T12:24:57.856Z,31.76
2023-03-29T12:27:59.976Z,32.33
2023-03-29T12:31:02.250Z,32.52
2023-03-29T12:34:10.223Z,32.86
2023-03-29T12:37:39.403Z,32.38
2023-03-29T12:40:47.289Z,32.87
2023-03-29T12:43:50.738Z,32.49
2023-03-29T12:46:59.472Z,32.73
2023-03-29T12:50:02.067Z,33.92
2023-03-29T12:53:26.439Z,35.00
2023-03-29T12:56:54.693Z,35.25
2023-03-29T12:59:57.281Z,34.41
2023-03-29T13:03:29.352Z,34.94
2023-03-29T13:06:34.696Z,34.70
2023-03-29T13:09:53.699Z,35.49
2023-03-29T13:12:56.354Z,35.95
2023-03-29T13:16:14.661Z,37.03
2023-03-29T13:19:41.952Z,37.09
2023-03-29T13:23:06.361Z,38.50
2023-03-29T13:26:49.789Z,38.22
2023-03-29T13:30:29.736Z,38.55
2023-03-29T13:33:55.559Z,37.89
2023-03-29T13:37:09.074Z,37.70
2023-03-29T13:40:40.651Z,37.90
2023-03-29T13:43:46.249Z,38.53
2023-03-29T13:46:49.767Z,38.82
2023-03-29T13:49:56.545Z,38.91
2023-03-29T13:53:02.349Z,39.45
2023-03-29T13:56:08.467Z,39.74
2023-03-29T13:59:21.094Z,40.24
2023-03-29T14:02:40.891Z,40.85
2023-03-29T14:05:49.193Z,41.07
2023-03-29T14:08:52.518Z,41.67
2023-03-29T14:11:54.769Z,41.93
2023-03-29T14:15:01.510Z,42.18
2023-03-29T14:18:04.011Z,42.26
2023-03-29T14:21:07.522Z,42.17
2023-03-29T14:24:20.124Z,42.70
2023-03-29T14:27:22.382Z,43.18
2023-03-29T14:30:29.387Z,43.80
2023-03-29T14:33:38.178Z,43.37
2023-03-29T14:36:40.842Z,43.42
2023-03-29T14:39:43.382Z,43.53
2023-03-29T14:42:48.217Z,43.89
2023-03-29T14:45:50.840Z,43.90
2023-03-29T14:48:54.849Z,43.75
2023-03-29T14:51:57.567Z,43.94
2023-03-29T14:55:02.416Z,44.25
2023-03-29T14:58:20.076Z,44.30
2023-03-29T15:01:25.071Z,44.35
2023-03-29T15:04:37.653Z,44.83
2023-03-29T15:07:43.762Z,44.54
2023-03-29T15:10:46.914Z,45.15
2023-03-29T15:13:55.653Z,44.71
2023-03-29T15:17:03.935Z,44.56
2023-03-29T15:20:12.893Z,44.58
2023-03-29T15:23:15.010Z,44.70
2023-03-29T15:26:46.553Z,44.53
2023-03-29T15:29:48.724Z,44.89
2023-03-29T15:32:53.357Z,44.84
2023-03-29T15:35:55.822Z,44.89
2023-03-29T15:38:59.435Z,45.08
2023-03-29T15:42:01.720Z,45.51
2023-03-29T15:45:07.788Z,46.04
2023-03-29T15:48:15.812Z,46.34
2023-03-29T15:51:18.597Z,46.63
2023-03-29T15:54:24.999Z,47.47
2023-03-29T15:57:27.301Z,48.05
2023-03-29T16:00:29.655Z,48.56
2023-03-29T16:03:32.320Z,48.84
2023-03-29T16:06:35.216Z,48.97
2023-03-29T16:09:38.028Z,49.13
2023-03-29T16:12:40.804Z,49.09
2023-03-29T16:15:43.635Z,49.22
2023-03-29T16:18:45.963Z,49.12
2023-03-29T16:21:49.428Z,49.07
2023-03-29T16:24:52.078Z,49.32
2023-03-29T16:27:54.690Z,49.19
2023-03-29T16:30:56.951Z,48.99
2023-03-29T16:33:59.347Z,48.86
2023-03-29T16:37:01.702Z,49.21
2023-03-29T16:40:07.500Z,48.93
2023-03-29T16:43:16.426Z,48.61
2023-03-29T16:46:18.784Z,48.82
2023-03-29T16:49:21.806Z,49.18
2023-03-29T16:52:24.058Z,49.21
2023-03-29T16:55:26.246Z,49.92
2023-03-29T16:58:29.111Z,49.47
2023-03-29T17:01:31.678Z,49.94
2023-03-29T17:04:34.188Z,50.19
2023-03-29T17:07:36.667Z,50.16
2023-03-29T17:10:42.721Z,51.11
2023-03-29T17:13:44.946Z,51.47
2023-03-29T17:16:47.202Z,51.53
2023-03-29T17:19:50.066Z,52.41
2023-03-29T17:22:54.502Z,52.34
2023-03-29T17:25:57.396Z,51.90
2023-03-29T17:28:59.554Z,51.87
2023-03-29T17:32:01.951Z,52.67
2023-03-29T17:35:04.957Z,53.22
2023-03-29T17:38:08.499Z,53.84
2023-03-29T17:41:11.260Z,54.61
2023-03-29T17:44:13.939Z,55.08
2023-03-29T17:47:16.730Z,55.08
2023-03-29T17:50:19.267Z,54.92
2023-03-29T17:53:21.717Z,55.10
2023-03-29T17:56:26.389Z,54.25
2023-03-29T17:59:29.445Z,54.29
2023-03-29T18:02:32.355Z,55.21
2023-03-29T18:05:36.024Z,55.12
2023-03-29T18:08:39.148Z,57.14
2023-03-29T18:11:42.156Z,55.26
2023-03-29T18:14:45.238Z,54.83
2023-03-29T18:17:47.933Z,54.84
2023-03-29T18:20:50.785Z,55.29
2023-03-29T18:23:55.548Z,54.82
2023-03-29T18:26:59.845Z,55.17
2023-03-29T18:30:04.019Z,55.25
2023-03-29T18:33:07.173Z,55.46
2023-03-29T18:36:13.216Z,55.28
2023-03-29T18:39:17.121Z,55.18
2023-03-29T18:42:22.489Z,54.86
2023-03-29T18:45:27.022Z,55.24
2023-03-29T18:48:30.527Z,55.59
2023-03-29T18:51:35.027Z,55.57
2023-03-29T18:54:39.856Z,55.55
2023-03-29T18:57:42.945Z,58.33
2023-03-29T19:00:45.670Z,58.12
2023-03-29T19:03:49.193Z,56.56
2023-03-29T19:06:52.623Z,55.79
2023-03-29T19:09:56.195Z,55.34
2023-03-29T19:12:58.765Z,55.22
2023-03-29T19:16:02.302Z,55.73
2023-03-29T19:19:08.010Z,55.46
2023-03-29T19:22:11.660Z,55.97
2023-03-29T19:25:17.910Z,54.76
2023-03-29T19:28:21.921Z,54.67
2023-03-29T19:31:24.748Z,55.16
2023-03-29T19:34:28.361Z,54.21
2023-03-29T19:37:31.343Z,54.87
2023-03-29T19:40:34.536Z,54.20
2023-03-29T19:43:37.362Z,53.52
2023-03-29T19:46:41.095Z,53.50
2023-03-29T19:49:46.916Z,54.11
2023-03-29T19:52:51.015Z,56.13
2023-03-29T19:55:53.736Z,55.46
2023-03-29T19:58:56.664Z,57.16
2023-03-29T20:01:59.890Z,58.02
2023-03-29T20:05:03.265Z,58.10
2023-03-29T20:08:08.169Z,59.18
2023-03-29T20:11:11.709Z,56.70
2023-03-29T20:14:14.710Z,54.84
2023-03-29T20:17:17.346Z,55.37
2023-03-29T20:20:23.593Z,55.22
2023-03-29T20:23:26.286Z,54.47
2023-03-29T20:26:29.277Z,54.89
2023-03-29T20:29:34.463Z,55.92
2023-03-29T20:32:37.544Z,57.63
2023-03-29T20:35:39.766Z,58.43
2023-03-29T20:38:42.212Z,59.91
2023-03-29T20:41:47.986Z,59.19
2023-03-29T20:44:51.567Z,60.17
2023-03-29T20:47:58.023Z,60.16
2023-03-29T20:51:03.240Z,60.74
2023-03-29T20:54:07.785Z,60.30
2023-03-29T20:57:14.291Z,61.96
2023-03-29T21:00:17.172Z,61.80
2023-03-29T21:03:19.766Z,61.78
2023-03-29T21:06:24.486Z,61.29
2023-03-29T21:09:26.685Z,61.16
2023-03-29T21:12:28.869Z,63.56
2023-03-29T21:15:34.314Z,63.42
2023-03-29T21:18:38.862Z,63.98
2023-03-29T21:21:42.866Z,63.84
2023-03-29T21:24:45.044Z,64.24
2023-03-29T21:27:47.505Z,64.36
2023-03-29T21:30:50.168Z,65.42
2023-03-29T21:33:53.334Z,65.72
2023-03-29T21:36:55.580Z,66.13
2023-03-29T21:39:58.093Z,66.34
2023-03-29T21:43:00.679Z,66.70
2023-03-29T21:46:02.862Z,65.59
2023-03-29T21:49:05.049Z,66.02
2023-03-29T21:52:07.647Z,66.61
2023-03-29T21:55:09.857Z,66.39
2023-03-29T21:58:12.041Z,66.01
2023-03-29T22:01:14.257Z,67.05
2023-03-29T22:04:25.818Z,67.34
2023-03-29T22:07:35.378Z,63.73
2023-03-29T22:10:41.485Z,63.38
2023-03-29T22:13:44.660Z,61.78
2023-03-29T22:16:47.389Z,59.80
2023-03-29T22:19:49.816Z,59.78
2023-03-29T22:22:52.137Z,62.67
2023-03-29T22:25:54.357Z,63.41
2023-03-29T22:28:58.373Z,59.96
2023-03-29T22:32:01.249Z,59.76
2023-03-29T22:35:04.032Z,59.69
2023-03-29T22:38:06.174Z,59.60
2023-03-29T22:41:08.730Z,59.77
2023-03-29T22:44:11.873Z,59.31
2023-03-29T22:47:14.270Z,59.48
2023-03-29T22:50:16.556Z,59.77
2023-03-29T22:53:18.747Z,59.60
2023-03-29T22:56:22.108Z,59.65
2023-03-29T22:59:25.529Z,61.70
2023-03-29T23:02:28.038Z,60.61
2023-03-29T23:05:30.397Z,61.00
2023-03-29T23:08:33.956Z,61.99
2023-03-29T23:11:36.488Z,61.36
2023-03-29T23:14:42.738Z,61.69
2023-03-29T23:17:45.074Z,62.56
2023-03-29T23:20:49.017Z,62.78
2023-03-29T23:23:51.780Z,62.81
2023-03-29T23:26:55.396Z,64.72
2023-03-29T23:29:59.741Z,65.06
2023-03-29T23:33:02.762Z,64.76
2023-03-29T23:36:07.823Z,64.42
2023-03-29T23:39:10.160Z,64.54
2023-03-29T23:42:12.567Z,66.22
2023-03-29T23:45:18.456Z,66.83
2023-03-29T23:48:21.122Z,67.41
2023-03-29T23:51:28.998Z,66.32
2023-03-29T23:54:35.439Z,67.05
2023-03-29T23:57:37.637Z,66.97
